Time;durP1;ratioP1;P1;durP2;ratioP2;P2;SDS_P1;SDS_P2;PMS_P1;PMS_P2;Temp;Humidity;BMP_temperature;BMP_pressure;BME280_temperature;BME280_humidity;BME280_pressure;Samples;Min_cycle;Max_cycle;Signal;HPM_P1;HPM_P2
2023/04/21 00:00:52;;;;;;;118.47;106.10;;;10.30;99.90;;;;;;4972646;28;20030;-85
2023/04/21 00:03:19;;;;;;;113.35;101.88;;;10.40;99.90;;;;;;4972184;28;20039;-84
2023/04/21 00:05:45;;;;;;;85.15;75.22;;;10.30;99.90;;;;;;4980942;28;21243;-85
2023/04/21 00:08:11;;;;;;;99.55;87.75;;;10.30;99.90;;;;;;4999866;28;20042;-85
2023/04/21 00:10:36;;;;;;;120.05;104.20;;;10.30;99.90;;;;;;4980845;28;20100;-84
2023/04/21 00:13:02;;;;;;;75.63;67.47;;;10.40;99.90;;;;;;4997436;28;20080;-85
2023/04/21 00:15:28;;;;;;;83.85;75.43;;;10.30;99.90;;;;;;5000491;28;20057;-85
2023/04/21 00:17:53;;;;;;;98.72;88.88;;;10.40;99.90;;;;;;4982488;28;20065;-85
2023/04/21 00:20:19;;;;;;;74.55;66.95;;;10.40;99.90;;;;;;4994008;28;20038;-85
2023/04/21 00:22:44;;;;;;;82.15;72.78;;;10.60;99.90;;;;;;4995558;28;20144;-84
2023/04/21 00:25:10;;;;;;;65.05;56.53;;;10.30;99.90;;;;;;4996815;28;20044;-84
2023/04/21 00:27:36;;;;;;;88.45;79.22;;;11.60;99.90;;;;;;4978557;28;20065;-85
2023/04/21 00:30:01;;;;;;;81.40;73.38;;;10.30;99.90;;;;;;4991049;28;20096;-84
2023/04/21 00:32:27;;;;;;;83.95;75.70;;;10.40;99.90;;;;;;4996157;28;20497;-85
2023/04/21 00:34:52;;;;;;;70.65;62.08;;;10.30;99.90;;;;;;4978652;28;20080;-84
2023/04/21 00:37:18;;;;;;;100.40;85.45;;;10.30;99.90;;;;;;4990363;28;20125;-84
2023/04/21 00:39:43;;;;;;;78.45;69.72;;;10.30;99.90;;;;;;4974920;28;20069;-84
2023/04/21 00:42:09;;;;;;;97.25;85.32;;;10.60;99.90;;;;;;4995347;28;20030;-85
2023/04/21 00:44:35;;;;;;;104.05;90.50;;;10.20;99.90;;;;;;4983751;28;20046;-85
2023/04/21 00:47:00;;;;;;;102.88;92.43;;;10.30;99.90;;;;;;4999530;28;20052;-85
2023/04/21 00:49:27;;;;;;;90.82;76.57;;;10.30;99.90;;;;;;4996653;28;20034;-85
2023/04/21 00:51:53;;;;;;;95.00;84.78;;;11.40;99.90;;;;;;5001597;28;20049;-84
2023/04/21 00:54:19;;;;;;;96.50;86.82;;;10.30;99.90;;;;;;4995060;28;20114;-84
2023/04/21 00:56:44;;;;;;;82.82;74.40;;;10.30;99.90;;;;;;5002829;28;20124;-84
2023/04/21 00:59:10;;;;;;;85.35;70.47;;;11.70;99.90;;;;;;5004562;28;20577;-85
2023/04/21 01:01:36;;;;;;;69.78;55.67;;;10.20;99.90;;;;;;5002604;28;20417;-84
2023/04/21 01:04:03;;;;;;;81.15;72.45;;;10.30;99.90;;;;;;4994075;28;20038;-84
2023/04/21 01:06:35;;;;;;;110.40;98.80;;;10.20;99.90;;;;;;4989933;28;20494;-84
2023/04/21 01:09:03;;;;;;;114.75;103.22;;;10.20;99.90;;;;;;5008332;28;20128;-85
2023/04/21 01:11:30;;;;;;;96.47;78.53;;;10.20;99.90;;;;;;4993863;28;20088;-85
2023/04/21 01:13:56;;;;;;;93.20;80.95;;;10.20;99.90;;;;;;4985875;28;20579;-84
2023/04/21 01:16:22;;;;;;;86.03;77.53;;;10.20;99.90;;;;;;5004310;28;20042;-85
2023/04/21 01:18:52;;;;;;;76.90;68.05;;;10.20;99.90;;;;;;4998794;28;20038;-85
2023/04/21 01:21:18;;;;;;;122.72;99.65;;;10.20;99.90;;;;;;4992751;28;20043;-84
2023/04/21 01:23:44;;;;;;;93.75;73.88;;;11.70;99.90;;;;;;4993810;28;20085;-84
2023/04/21 01:26:10;;;;;;;88.30;79.07;;;10.30;99.90;;;;;;5009060;28;20041;-84
2023/04/21 01:28:36;;;;;;;80.55;71.30;;;11.60;99.90;;;;;;4991879;28;20137;-84
2023/04/21 01:31:02;;;;;;;78.88;71.25;;;10.30;99.90;;;;;;5024519;28;20032;-84
2023/04/21 01:33:28;;;;;;;86.10;77.10;;;10.40;99.90;;;;;;5002911;28;20127;-85
2023/04/21 01:35:54;;;;;;;115.25;90.75;;;10.30;99.90;;;;;;5010843;28;20049;-84
2023/04/21 01:38:21;;;;;;;96.95;84.90;;;10.30;99.90;;;;;;5002262;28;20077;-85
2023/04/21 01:40:49;;;;;;;119.10;98.88;;;10.30;99.90;;;;;;4995498;28;20506;-85
2023/04/21 01:43:17;;;;;;;99.13;83.03;;;10.20;99.90;;;;;;4994170;28;20080;-85
2023/04/21 01:45:43;;;;;;;75.47;65.47;;;11.20;99.90;;;;;;5003524;28;20050;-85
2023/04/21 01:48:08;;;;;;;85.57;76.40;;;10.20;99.90;;;;;;5007660;28;20052;-85
2023/04/21 01:50:34;;;;;;;76.95;67.68;;;10.20;99.90;;;;;;5010703;28;20042;-85
2023/04/21 01:53:00;;;;;;;104.07;93.45;;;10.10;99.90;;;;;;5004930;28;20065;-85
2023/04/21 01:55:26;;;;;;;87.50;67.80;;;10.20;99.90;;;;;;4996504;28;20050;-85
2023/04/21 01:57:51;;;;;;;109.28;87.15;;;10.10;99.90;;;;;;5007072;28;20040;-84
2023/04/21 02:00:17;;;;;;;90.60;81.75;;;10.20;99.90;;;;;;4981977;28;20035;-85
2023/04/21 02:02:43;;;;;;;83.75;75.00;;;10.10;99.90;;;;;;5004022;28;20037;-85
2023/04/21 02:05:08;;;;;;;101.07;82.97;;;10.10;99.90;;;;;;5005236;28;20030;-85
2023/04/21 02:07:34;;;;;;;86.28;65.47;;;10.10;99.90;;;;;;4993212;28;20479;-84
2023/04/21 02:09:59;;;;;;;94.72;84.63;;;10.10;99.90;;;;;;4991801;28;20046;-85
2023/04/21 02:12:25;;;;;;;77.25;66.40;;;10.10;99.90;;;;;;4975291;28;20518;-85
2023/04/21 02:14:51;;;;;;;104.95;89.88;;;11.20;99.90;;;;;;4991498;28;20454;-85
2023/04/21 02:17:16;;;;;;;85.38;76.85;;;10.00;99.90;;;;;;5002490;28;20038;-85
2023/04/21 02:19:42;;;;;;;111.60;100.78;;;11.00;99.90;;;;;;5010867;28;20037;-85
2023/04/21 02:22:09;;;;;;;104.70;94.03;;;10.10;99.90;;;;;;5009959;28;20092;-85
2023/04/21 02:24:35;;;;;;;97.93;83.80;;;10.10;99.90;;;;;;4985074;28;20490;-85
2023/04/21 02:27:01;;;;;;;89.35;75.32;;;10.00;99.90;;;;;;4981775;28;20037;-85
2023/04/21 02:29:27;;;;;;;76.50;67.25;;;10.10;99.90;;;;;;4998330;28;20034;-85
2023/04/21 02:31:52;;;;;;;87.03;77.90;;;10.10;99.90;;;;;;4989714;28;20563;-84
2023/04/21 02:34:19;;;;;;;114.35;102.72;;;10.10;99.90;;;;;;4974799;28;20052;-84
2023/04/21 02:36:45;;;;;;;82.18;70.55;;;10.10;99.90;;;;;;4992997;28;20046;-85
2023/04/21 02:39:10;;;;;;;84.15;72.43;;;10.00;99.90;;;;;;4988912;28;20073;-85
2023/04/21 02:41:36;;;;;;;62.67;56.20;;;10.10;99.90;;;;;;4993518;28;20034;-85
2023/04/21 02:44:02;;;;;;;86.20;70.47;;;10.10;99.90;;;;;;4984275;28;20052;-85
2023/04/21 02:46:27;;;;;;;91.53;80.50;;;10.10;99.90;;;;;;4973388;28;20478;-85
2023/04/21 02:48:53;;;;;;;101.90;92.43;;;10.10;99.90;;;;;;4997502;28;20049;-85
2023/04/21 02:51:18;;;;;;;56.58;50.08;;;10.10;99.90;;;;;;4990355;28;20042;-84
2023/04/21 02:53:44;;;;;;;104.18;92.22;;;11.50;99.90;;;;;;4992416;28;20056;-84
2023/04/21 02:56:09;;;;;;;91.88;82.40;;;11.20;99.90;;;;;;5000014;28;20141;-85
2023/04/21 02:58:36;;;;;;;105.15;96.05;;;10.10;99.90;;;;;;4974176;28;20426;-84
2023/04/21 03:01:03;;;;;;;73.32;66.53;;;10.00;99.90;;;;;;4988704;28;20126;-84
2023/04/21 03:03:30;;;;;;;97.40;86.32;;;10.00;99.90;;;;;;4989947;28;20457;-85
2023/04/21 03:06:00;;;;;;;78.85;70.63;;;10.00;99.90;;;;;;4990065;28;20140;-84
2023/04/21 03:08:26;;;;;;;76.15;64.78;;;10.00;99.90;;;;;;5009175;28;20054;-85
2023/04/21 03:10:52;;;;;;;133.57;119.97;;;10.00;99.90;;;;;;4993639;28;20036;-85
2023/04/21 03:13:17;;;;;;;94.78;85.10;;;9.90;99.90;;;;;;5009369;28;20042;-85
2023/04/21 03:15:43;;;;;;;96.57;87.15;;;10.00;99.90;;;;;;4990257;28;20046;-85
2023/04/21 03:18:09;;;;;;;103.95;93.75;;;10.50;99.90;;;;;;5008507;28;20398;-85
2023/04/21 03:20:35;;;;;;;97.53;87.97;;;9.90;99.90;;;;;;5009826;28;20046;-85
2023/04/21 03:23:00;;;;;;;100.80;87.78;;;9.90;99.90;;;;;;5009085;28;20041;-85
2023/04/21 03:25:26;;;;;;;137.35;124.13;;;9.90;99.90;;;;;;4992847;28;20072;-85
2023/04/21 03:27:53;;;;;;;64.47;54.47;;;9.90;99.90;;;;;;5009111;28;20037;-85
2023/04/21 03:30:19;;;;;;;61.22;54.78;;;9.90;99.90;;;;;;5009039;28;20084;-85
2023/04/21 03:32:45;;;;;;;105.05;94.85;;;9.80;99.90;;;;;;5007797;28;20194;-85
2023/04/21 03:35:10;;;;;;;110.97;100.90;;;9.80;99.90;;;;;;4992891;28;20129;-84
2023/04/21 03:37:36;;;;;;;59.65;53.45;;;9.80;99.90;;;;;;5007978;28;20033;-84
2023/04/21 03:40:04;;;;;;;72.70;57.50;;;9.80;99.90;;;;;;4992424;28;20446;-84
2023/04/21 03:42:30;;;;;;;120.30;108.88;;;9.80;99.90;;;;;;4992903;28;20124;-85
2023/04/21 03:45:00;;;;;;;113.72;102.65;;;9.80;99.90;;;;;;5008830;28;20128;-85
2023/04/21 03:47:26;;;;;;;84.05;76.32;;;9.70;99.90;;;;;;5007742;28;20057;-85
2023/04/21 03:49:51;;;;;;;113.43;103.80;;;10.00;99.90;;;;;;4992944;28;20417;-85
2023/04/21 03:52:17;;;;;;;110.15;99.13;;;9.70;99.90;;;;;;4996903;28;20147;-84
2023/04/21 03:54:42;;;;;;;116.45;104.93;;;9.80;99.90;;;;;;4989267;28;20046;-85
2023/04/21 03:57:08;;;;;;;105.80;94.75;;;9.80;99.90;;;;;;4974966;28;20039;-85
2023/04/21 03:59:34;;;;;;;94.13;85.35;;;9.80;99.90;;;;;;4989133;28;20065;-85
2023/04/21 04:01:59;;;;;;;126.45;108.18;;;9.80;99.90;;;;;;4969425;28;20038;-85
2023/04/21 04:04:25;;;;;;;107.88;98.75;;;9.80;99.90;;;;;;5022272;28;20583;-85
2023/04/21 04:06:50;;;;;;;103.43;94.13;;;9.80;99.90;;;;;;5008838;28;20049;-85
2023/04/21 04:09:16;;;;;;;86.15;78.63;;;9.90;99.90;;;;;;4992678;28;20049;-85
2023/04/21 04:11:41;;;;;;;97.35;88.18;;;9.80;99.90;;;;;;5008460;28;20050;-85
2023/04/21 04:14:07;;;;;;;78.45;71.30;;;9.80;99.90;;;;;;4992361;28;20045;-85
2023/04/21 04:16:34;;;;;;;138.82;124.43;;;9.80;99.90;;;;;;5007431;28;20076;-85
2023/04/21 04:19:00;;;;;;;98.47;89.40;;;9.90;99.90;;;;;;5008438;28;20041;-85
2023/04/21 04:21:26;;;;;;;87.68;78.90;;;9.90;99.90;;;;;;5003281;28;20034;-84
2023/04/21 04:23:52;;;;;;;105.18;95.95;;;9.90;99.90;;;;;;5008640;28;20042;-84
2023/04/21 04:26:18;;;;;;;67.50;56.08;;;9.80;99.90;;;;;;5011226;28;20507;-84
2023/04/21 04:28:44;;;;;;;53.10;47.42;;;9.80;99.90;;;;;;4996310;28;20034;-85
2023/04/21 04:31:09;;;;;;;92.57;84.63;;;9.80;99.90;;;;;;4995198;28;20049;-84
2023/04/21 04:33:35;;;;;;;123.47;111.95;;;9.80;99.90;;;;;;5012562;28;20053;-85
2023/04/21 04:36:00;;;;;;;97.68;88.85;;;9.80;99.90;;;;;;5010894;28;20547;-85
2023/04/21 04:38:27;;;;;;;89.22;81.45;;;9.80;99.90;;;;;;5012378;28;20054;-85
2023/04/21 04:41:00;;;;;;;108.72;99.28;;;9.80;99.90;;;;;;5012708;28;20069;-84
2023/04/21 04:43:25;;;;;;;103.13;93.00;;;9.70;99.90;;;;;;4996036;28;20046;-85
2023/04/21 04:45:51;;;;;;;50.33;45.33;;;10.90;99.90;;;;;;4995902;28;20111;-85
2023/04/21 04:48:17;;;;;;;68.90;58.60;;;9.70;99.90;;;;;;5011519;28;20042;-85
2023/04/21 04:50:43;;;;;;;52.95;46.80;;;9.80;99.90;;;;;;4988034;28;20089;-85
2023/04/21 04:53:08;;;;;;;59.55;53.13;;;9.90;99.90;;;;;;4976488;28;20073;-84
2023/04/21 04:55:34;;;;;;;77.47;70.53;;;9.90;99.90;;;;;;4994617;28;20074;-85
2023/04/21 04:58:00;;;;;;;91.05;83.35;;;9.90;99.90;;;;;;4992284;28;20116;-85
2023/04/21 05:00:27;;;;;;;86.30;78.57;;;9.90;99.90;;;;;;4991489;28;20049;-85
2023/04/21 05:02:53;;;;;;;91.10;81.82;;;9.90;99.90;;;;;;4975332;28;20542;-85
2023/04/21 05:05:20;;;;;;;100.53;92.10;;;9.90;99.90;;;;;;4998365;28;20034;-85
2023/04/21 05:07:46;;;;;;;68.20;61.60;;;9.90;99.90;;;;;;4995218;28;20403;-85
2023/04/21 05:10:12;;;;;;;116.25;105.55;;;9.90;99.90;;;;;;4995692;28;20042;-85
2023/04/21 05:12:38;;;;;;;65.20;58.72;;;9.90;99.90;;;;;;5011451;28;20084;-85
2023/04/21 05:15:05;;;;;;;90.70;83.00;;;10.00;99.90;;;;;;4992339;28;20064;-84
2023/04/21 05:17:32;;;;;;;73.85;66.25;;;10.00;99.90;;;;;;5005998;28;20093;-85
2023/04/21 05:19:58;;;;;;;60.75;54.90;;;10.00;99.90;;;;;;5014055;28;20104;-85
2023/04/21 05:22:24;;;;;;;83.53;76.32;;;10.10;99.90;;;;;;5004607;28;20038;-85
2023/04/21 05:24:50;;;;;;;78.15;70.57;;;10.10;99.90;;;;;;5000293;28;20379;-85
2023/04/21 05:27:16;;;;;;;86.50;78.18;;;11.40;99.90;;;;;;4993402;28;20576;-85
2023/04/21 05:29:41;;;;;;;94.65;86.22;;;10.10;99.90;;;;;;5006182;28;20041;-85
2023/04/21 05:32:07;;;;;;;58.05;52.33;;;10.10;99.90;;;;;;5006147;28;20034;-85
2023/04/21 05:34:33;;;;;;;100.63;92.30;;;10.10;99.90;;;;;;4992162;28;20112;-84
2023/04/21 05:36:59;;;;;;;52.35;47.75;;;10.20;99.90;;;;;;5002114;28;20089;-85
2023/04/21 05:39:26;;;;;;;75.70;69.22;;;10.20;99.90;;;;;;5000546;28;20421;-85
2023/04/21 05:41:52;;;;;;;83.40;75.95;;;10.90;99.90;;;;;;5003012;28;20060;-85
2023/04/21 05:44:17;;;;;;;83.53;74.93;;;10.30;99.90;;;;;;5000366;28;20025;-85
2023/04/21 05:46:43;;;;;;;67.03;61.25;;;10.50;99.90;;;;;;5016719;28;20034;-85
2023/04/21 05:49:09;;;;;;;65.10;59.17;;;10.40;99.90;;;;;;5000182;28;20559;-85
2023/04/21 05:51:34;;;;;;;79.93;72.80;;;10.40;99.90;;;;;;4999619;28;20086;-85
2023/04/21 05:54:00;;;;;;;36.78;32.97;;;10.50;99.90;;;;;;5008454;28;20501;-85
2023/04/21 05:56:25;;;;;;;85.00;78.32;;;10.50;99.90;;;;;;4995786;28;20041;-85
2023/04/21 05:58:51;;;;;;;98.43;88.88;;;10.50;99.90;;;;;;5001590;28;20038;-85
2023/04/21 06:01:17;;;;;;;99.28;91.03;;;10.60;99.90;;;;;;4983019;28;20044;-85
2023/04/21 06:03:42;;;;;;;95.07;87.75;;;10.60;87.60;;;;;;4988827;28;20420;-85
2023/04/21 06:06:10;;;;;;;78.25;72.13;;;10.60;48.80;;;;;;5008155;28;20044;-85
2023/04/21 06:08:35;;;;;;;94.47;87.05;;;10.70;20.10;;;;;;4997805;28;20580;-85
2023/04/21 06:11:01;;;;;;;83.03;75.93;;;10.70;1.00;;;;;;5005867;28;20070;-85
2023/04/21 06:13:27;;;;;;;59.72;54.40;;;10.80;1.00;;;;;;4989618;28;20489;-85
2023/04/21 06:15:53;;;;;;;65.53;59.97;;;10.80;1.00;;;;;;4993731;28;20030;-86
2023/04/21 06:18:19;;;;;;;98.15;89.63;;;11.00;1.00;;;;;;4979228;28;20038;-85
2023/04/21 06:20:53;;;;;;;78.97;71.40;;;12.10;1.00;;;;;;4985821;28;20478;-86
2023/04/21 06:23:19;;;;;;;73.15;67.25;;;11.10;99.90;;;;;;5000513;28;20077;-86
2023/04/21 06:25:44;;;;;;;72.63;65.78;;;12.60;99.90;;;;;;5007195;28;20465;-85
2023/04/21 06:28:10;;;;;;;96.70;89.18;;;11.10;99.90;;;;;;4988830;28;20038;-85
2023/04/21 06:30:35;;;;;;;129.68;117.13;;;11.10;1.00;;;;;;4985954;28;20038;-86
2023/04/21 06:33:01;;;;;;;59.83;54.20;;;11.10;99.90;;;;;;4980182;28;20391;-86
2023/04/21 06:35:29;;;;;;;63.08;56.90;;;11.20;99.90;;;;;;5001584;28;20112;-86
2023/04/21 06:37:55;;;;;;;52.08;47.28;;;11.20;94.80;;;;;;5003555;28;20084;-86
2023/04/21 06:40:21;;;;;;;77.90;71.32;;;11.30;1.00;;;;;;4993296;28;20431;-86
2023/04/21 06:42:46;;;;;;;70.65;58.30;;;11.30;99.90;;;;;;5009377;28;20399;-85
2023/04/21 06:45:12;;;;;;;55.25;50.17;;;11.40;99.90;;;;;;4991272;28;20116;-86
2023/04/21 06:47:37;;;;;;;101.30;90.82;;;11.50;93.30;;;;;;4988269;28;20034;-86
2023/04/21 06:50:06;;;;;;;62.92;56.67;;;11.60;1.00;;;;;;5004681;28;20060;-86
2023/04/21 06:52:31;;;;;;;65.30;50.72;;;11.60;99.90;;;;;;4999770;28;20045;-86
2023/04/21 06:54:57;;;;;;;61.35;54.80;;;11.60;4.30;;;;;;4997224;28;20034;-85
2023/04/21 06:57:23;;;;;;;48.10;40.85;;;11.70;1.00;;;;;;4988212;28;20038;-87
2023/04/21 06:59:48;;;;;;;52.80;44.53;;;13.50;99.90;;;;;;4991151;28;20042;-87
2023/04/21 07:02:14;;;;;;;58.58;46.97;;;11.90;99.90;;;;;;5003673;28;20048;-87
2023/04/21 07:04:39;;;;;;;64.43;52.55;;;12.00;1.00;;;;;;4987248;28;20405;-86
2023/04/21 07:07:05;;;;;;;79.05;71.25;;;12.00;99.90;;;;;;4985525;28;20129;-87
2023/04/21 07:09:32;;;;;;;71.97;56.83;;;12.00;3.10;;;;;;5002092;28;20361;-86
2023/04/21 07:11:58;;;;;;;65.35;58.67;;;12.00;1.00;;;;;;4988534;28;20391;-87
2023/04/21 07:14:24;;;;;;;72.68;65.10;;;11.90;99.90;;;;;;4990773;28;20095;-87
2023/04/21 07:16:50;;;;;;;68.05;52.33;;;11.90;91.60;;;;;;5000167;28;20050;-88
2023/04/21 07:19:16;;;;;;;58.22;47.20;;;13.50;90.10;;;;;;4992579;28;20499;-88
2023/04/21 07:21:41;;;;;;;77.95;63.17;;;12.50;5.20;;;;;;4982237;28;20074;-88
2023/04/21 07:24:07;;;;;;;57.38;51.00;;;12.40;1.00;;;;;;5007106;28;20576;-88
2023/04/21 07:26:33;;;;;;;51.78;44.78;;;12.50;99.90;;;;;;5007360;28;20041;-87
2023/04/21 07:28:58;;;;;;;75.20;60.55;;;12.60;99.90;;;;;;5005479;28;20042;-86
2023/04/21 07:31:24;;;;;;;47.53;40.80;;;13.70;97.90;;;;;;4997347;28;20050;-87
2023/04/21 07:33:50;;;;;;;55.83;49.92;;;13.10;60.60;;;;;;4994778;28;20469;-86
2023/04/21 07:36:16;;;;;;;58.25;51.90;;;13.10;99.90;;;;;;4987528;28;20056;-87
2023/04/21 07:38:42;;;;;;;48.90;40.88;;;13.30;99.90;;;;;;4996548;28;20130;-89
2023/04/21 07:41:10;;;;;;;38.33;33.10;;;15.20;99.90;;;;;;5005985;28;20092;-89
2023/04/21 07:43:36;;;;;;;59.45;46.95;;;13.20;1.00;;;;;;4991440;28;20474;-89
2023/04/21 07:46:01;;;;;;;60.80;52.90;;;13.20;1.00;;;;;;4987480;28;20103;-88
2023/04/21 07:48:27;;;;;;;53.72;48.10;;;14.10;99.90;;;;;;5010992;28;20126;-88
2023/04/21 07:50:52;;;;;;;27.08;23.40;;;13.10;99.90;;;;;;5000938;28;20052;-87
2023/04/21 07:53:18;;;;;;;44.83;39.80;;;13.70;99.90;;;;;;4980003;28;21414;-87
2023/04/21 07:55:44;;;;;;;24.33;18.02;;;13.40;99.90;;;;;;4986346;28;20038;-86
2023/04/21 07:58:09;;;;;;;36.33;32.22;;;14.00;99.90;;;;;;4990678;28;20034;-86
2023/04/21 08:00:36;;;;;;;39.15;34.95;;;13.70;99.90;;;;;;4979175;28;20054;-86
2023/04/21 08:03:08;;;;;;;44.15;34.85;;;13.60;85.60;;;;;;4985125;28;20141;-88
2023/04/21 08:05:36;;;;;;;54.78;45.97;;;14.70;45.30;;;;;;4999165;28;20548;-88
2023/04/21 08:08:02;;;;;;;44.25;39.65;;;13.60;1.00;;;;;;4983075;28;20061;-87
2023/04/21 08:10:27;;;;;;;53.30;47.33;;;13.40;1.00;;;;;;4980307;28;20412;-92
2023/04/21 08:12:53;;;;;;;48.08;42.35;;;14.90;1.00;;;;;;5001124;28;20489;-89
2023/04/21 08:15:19;;;;;;;31.00;22.92;;;13.50;1.00;;;;;;5003497;28;20524;-89
2023/04/21 08:17:45;;;;;;;44.03;38.35;;;13.70;1.00;;;;;;4986789;28;20042;-87
2023/04/21 08:20:11;;;;;;;47.40;39.13;;;13.90;1.00;;;;;;4999760;28;20133;-91
2023/04/21 08:22:36;;;;;;;31.40;22.75;;;14.10;1.00;;;;;;4975276;28;20045;-88
2023/04/21 08:25:03;;;;;;;36.10;25.52;;;14.40;1.00;;;;;;4985841;28;20060;-89
2023/04/21 08:27:29;;;;;;;45.97;40.55;;;14.30;1.00;;;;;;4990714;28;20127;-87
2023/04/21 08:29:55;;;;;;;45.60;41.03;;;15.40;99.90;;;;;;4991847;28;20046;-88
2023/04/21 08:32:25;;;;;;;41.30;36.97;;;14.80;99.90;;;;;;4981797;28;20046;-88
2023/04/21 08:34:51;;;;;;;27.27;24.35;;;14.40;99.90;;;;;;4989570;28;20054;-87
2023/04/21 08:37:18;;;;;;;38.88;29.67;;;15.60;99.90;;;;;;5007110;28;20046;-87
2023/04/21 08:39:45;;;;;;;41.95;34.60;;;14.50;99.90;;;;;;4989417;28;20698;-88
2023/04/21 08:42:15;;;;;;;42.38;36.67;;;14.90;99.90;;;;;;5001599;28;20128;-88
2023/04/21 08:44:42;;;;;;;32.85;28.80;;;15.00;99.90;;;;;;5005167;28;20030;-86
2023/04/21 08:47:10;;;;;;;28.35;23.90;;;15.10;99.90;;;;;;5005268;28;20517;-88
2023/04/21 08:49:37;;;;;;;45.70;32.83;;;16.20;98.60;;;;;;5004297;28;20124;-89
2023/04/21 08:52:03;;;;;;;32.95;28.25;;;16.00;17.40;;;;;;4989666;28;20489;-89
2023/04/21 08:54:29;;;;;;;35.65;31.90;;;15.40;1.00;;;;;;4987791;28;20152;-93
2023/04/21 08:56:56;;;;;;;20.60;15.63;;;15.70;1.00;;;;;;5005859;28;20049;-93
2023/04/21 08:59:21;;;;;;;32.55;23.88;;;16.00;1.00;;;;;;4992216;28;20062;-91
2023/04/21 09:02:10;;;;;;;27.17;24.30;;;16.60;1.00;;;;;;5003377;28;20142;-93
2023/04/21 09:04:54;;;;;;;29.40;22.25;;;15.50;1.00;;;;;;4992326;28;20041;-92
2023/04/21 09:07:34;;;;;;;38.80;34.58;;;15.30;1.00;;;;;;5005625;28;20501;-92
2023/04/21 09:10:04;;;;;;;32.00;28.63;;;15.10;1.00;;;;;;5004131;28;20041;-94
2023/04/21 09:12:29;;;;;;;34.55;30.70;;;14.90;1.00;;;;;;4991250;28;20049;-92
2023/04/21 09:14:59;;;;;;;33.70;27.52;;;14.90;1.00;;;;;;5009048;28;20433;-91
2023/04/21 09:17:31;;;;;;;30.77;27.58;;;15.90;1.00;;;;;;4993193;28;20042;-92
2023/04/21 09:20:10;;;;;;;30.33;26.45;;;15.00;1.00;;;;;;4991367;28;20509;-92
2023/04/21 09:22:37;;;;;;;26.08;19.00;;;15.20;1.00;;;;;;4968343;28;20095;-92
2023/04/21 09:25:03;;;;;;;34.63;30.88;;;16.00;1.00;;;;;;5002399;28;20490;-93
2023/04/21 09:27:29;;;;;;;45.60;37.15;;;15.20;1.00;;;;;;4989505;28;20049;-93
2023/04/21 09:29:54;;;;;;;35.13;31.40;;;16.10;1.00;;;;;;4985691;28;20620;-91
2023/04/21 09:32:20;;;;;;;37.72;28.88;;;15.10;1.00;;;;;;4988731;28;20026;-93
2023/04/21 09:34:45;;;;;;;41.75;37.63;;;15.30;1.00;;;;;;4975939;28;20092;-91
2023/04/21 09:37:13;;;;;;;35.33;30.38;;;15.50;99.90;;;;;;4993524;28;20129;-91
2023/04/21 09:39:43;;;;;;;26.02;18.83;;;16.80;99.90;;;;;;4991157;28;20068;-92
2023/04/21 09:42:09;;;;;;;32.28;26.58;;;16.10;99.90;;;;;;5005899;28;20053;-91
2023/04/21 09:44:37;;;;;;;27.90;24.67;;;16.30;99.90;;;;;;5000390;28;20053;-91
2023/04/21 09:47:04;;;;;;;30.95;23.80;;;16.50;99.90;;;;;;4982631;28;20073;-93
2023/04/21 09:49:34;;;;;;;31.45;27.02;;;16.40;99.90;;;;;;4996996;28;20050;-96
2023/04/21 09:52:01;;;;;;;25.15;21.08;;;16.30;99.90;;;;;;4985176;28;20048;-96
2023/04/21 09:54:32;;;;;;;34.80;31.17;;;16.70;99.90;;;;;;4994685;28;20089;-95
2023/04/21 09:57:02;;;;;;;29.58;26.55;;;17.50;99.90;;;;;;5001166;28;20498;-96
2023/04/21 09:59:36;;;;;;;37.72;30.52;;;17.50;99.90;;;;;;4986579;28;20037;-93
2023/04/21 10:02:06;;;;;;;31.13;27.77;;;17.80;99.90;;;;;;4988213;28;20034;-94
2023/04/21 10:04:33;;;;;;;27.02;24.15;;;16.70;99.90;;;;;;4993362;28;20052;-95
2023/04/21 10:07:00;;;;;;;19.30;14.55;;;17.00;99.90;;;;;;4990020;28;20130;-94
2023/04/21 10:09:32;;;;;;;31.60;26.83;;;18.20;99.90;;;;;;4987741;28;20073;-94
2023/04/21 10:12:01;;;;;;;27.42;16.98;;;18.30;99.90;;;;;;5000594;28;20048;-95
2023/04/21 10:14:27;;;;;;;24.67;19.55;;;18.60;99.90;;;;;;5007536;28;20556;-94
2023/04/21 10:17:07;;;;;;;25.85;18.63;;;18.70;99.90;;;;;;4994054;28;20038;-93
2023/04/21 10:19:38;;;;;;;25.30;20.50;;;17.20;99.90;;;;;;5003026;28;20101;-93
2023/04/21 10:22:07;;;;;;;22.40;17.63;;;17.20;99.90;;;;;;4986148;28;20044;-95
2023/04/21 10:24:39;;;;;;;28.73;25.15;;;18.40;99.90;;;;;;5008396;28;20064;-94
2023/04/21 10:27:10;;;;;;;22.80;19.50;;;18.90;99.90;;;;;;5009362;28;20125;-95
2023/04/21 10:29:35;;;;;;;23.40;16.88;;;16.90;99.90;;;;;;5009218;28;20073;-95
2023/04/21 10:32:02;;;;;;;30.48;27.38;;;17.20;99.90;;;;;;4989569;28;20450;-95
2023/04/21 10:34:35;;;;;;;26.42;21.50;;;16.70;99.90;;;;;;4980934;28;20501;-95
2023/04/21 10:37:03;;;;;;;28.92;23.00;;;16.50;99.90;;;;;;5006671;28;20048;-95
2023/04/21 10:39:36;;;;;;;23.48;20.95;;;16.60;99.90;;;;;;4992953;28;20050;-95
2023/04/21 10:42:24;;;;;;;26.55;23.83;;;16.40;99.90;;;;;;4988079;28;20041;-95
2023/04/21 10:44:56;;;;;;;31.02;27.65;;;16.40;99.90;;;;;;5008384;28;20038;-96
2023/04/21 10:47:26;;;;;;;31.88;27.80;;;17.40;99.90;;;;;;4988670;28;20053;-95
2023/04/21 10:49:53;;;;;;;41.47;31.10;;;16.40;99.90;;;;;;4993939;28;20053;-95
2023/04/21 10:52:20;;;;;;;30.75;26.40;;;17.60;99.90;;;;;;4987704;28;20046;-94
2023/04/21 10:54:45;;;;;;;27.10;24.23;;;16.30;99.90;;;;;;5001971;28;20096;-94
2023/04/21 10:57:16;;;;;;;32.40;22.67;;;16.40;99.90;;;;;;4988830;28;20041;-94
2023/04/21 10:59:42;;;;;;;25.08;19.63;;;16.50;99.90;;;;;;4991041;28;20037;-94
2023/04/21 11:02:16;;;;;;;30.30;25.20;;;17.30;99.90;;;;;;4988195;28;20049;-95
2023/04/21 11:04:49;;;;;;;25.23;15.60;;;17.90;99.90;;;;;;4983109;28;20033;-93
2023/04/21 11:07:16;;;;;;;23.27;20.73;;;18.50;99.90;;;;;;5005446;28;20546;-95
2023/04/21 11:09:43;;;;;;;31.88;26.50;;;17.40;99.90;;;;;;4999620;28;20041;-94
2023/04/21 11:12:13;;;;;;;25.27;21.40;;;17.20;99.90;;;;;;4988083;28;20095;-93
2023/04/21 11:14:42;;;;;;;32.08;27.92;;;17.00;99.90;;;;;;4988766;28;20144;-92
2023/04/21 11:17:19;;;;;;;30.25;27.00;;;17.40;99.90;;;;;;5012162;28;20103;-93
2023/04/21 11:19:53;;;;;;;29.30;22.00;;;16.90;99.90;;;;;;5005850;28;20129;-92
2023/04/21 11:22:20;;;;;;;33.55;30.35;;;16.90;99.90;;;;;;4988646;28;20048;-92
2023/04/21 11:24:47;;;;;;;33.95;30.70;;;17.50;99.90;;;;;;4984837;28;20034;-93
2023/04/21 11:27:14;;;;;;;21.92;19.40;;;17.30;99.90;;;;;;4982027;28;20042;-92
2023/04/21 11:29:40;;;;;;;23.42;21.13;;;18.60;99.90;;;;;;4996895;28;20045;-90
2023/04/21 11:32:07;;;;;;;28.17;21.05;;;18.90;99.90;;;;;;4973701;28;20058;-93
2023/04/21 11:34:35;;;;;;;30.00;20.63;;;17.40;98.10;;;;;;4976122;28;20485;-91
2023/04/21 11:37:01;;;;;;;22.33;15.55;;;17.80;81.30;;;;;;4991260;28;20038;-96
2023/04/21 11:39:26;;;;;;;30.95;27.83;;;17.40;73.80;;;;;;4990080;28;20379;-93
2023/04/21 11:41:52;;;;;;;25.45;19.15;;;17.20;78.70;;;;;;5013714;28;20053;-94
2023/04/21 11:44:37;;;;;;;24.35;19.27;;;17.20;93.30;;;;;;4998294;28;20041;-93
2023/04/21 11:47:17;;;;;;;27.08;24.42;;;17.20;74.30;;;;;;5006648;28;20112;-92
2023/04/21 11:50:01;;;;;;;29.65;24.55;;;17.20;64.80;;;;;;4987906;28;20030;-91
2023/04/21 11:52:32;;;;;;;27.80;22.25;;;17.20;53.70;;;;;;4984383;28;20133;-92
2023/04/21 11:55:11;;;;;;;25.83;22.23;;;17.40;50.10;;;;;;4989619;28;20038;-94
2023/04/21 11:57:39;;;;;;;27.13;24.40;;;17.50;51.70;;;;;;4989567;28;20042;-94
2023/04/21 12:00:07;;;;;;;31.27;27.98;;;17.70;71.20;;;;;;4986682;28;20491;-94
2023/04/21 12:02:33;;;;;;;34.35;30.65;;;17.70;69.80;;;;;;4991359;28;20054;-93
2023/04/21 12:05:07;;;;;;;27.65;23.27;;;17.80;78.50;;;;;;4982097;28;20089;-93
2023/04/21 12:07:34;;;;;;;29.77;25.00;;;17.80;79.60;;;;;;4997301;28;20065;-93
2023/04/21 12:10:01;;;;;;;27.27;20.15;;;17.90;71.10;;;;;;5007571;28;20516;-92
2023/04/21 12:12:28;;;;;;;25.27;21.25;;;17.90;48.30;;;;;;5009144;28;20053;-91
2023/04/21 12:14:54;;;;;;;30.23;24.63;;;18.60;59.70;;;;;;4991437;28;20045;-93
2023/04/21 12:17:20;;;;;;;25.17;21.48;;;17.80;61.70;;;;;;4988866;28;20044;-93
2023/04/21 12:19:45;;;;;;;25.23;20.95;;;17.90;70.00;;;;;;4977962;28;20056;-95
2023/04/21 12:22:13;;;;;;;25.52;19.10;;;18.10;67.20;;;;;;4998116;28;20490;-91
2023/04/21 12:24:40;;;;;;;26.50;19.83;;;17.80;52.70;;;;;;4996946;28;20121;-92
2023/04/21 12:27:06;;;;;;;28.33;25.50;;;18.90;53.20;;;;;;4996276;28;20085;-94